Time;durP1;ratioP1;P1;durP2;ratioP2;P2;SDS_P1;SDS_P2;PMS_P1;PMS_P2;Temp;Humidity;BMP_temperature;BMP_pressure;BME280_temperature;BME280_humidity;BME280_pressure;Samples;Min_cycle;Max_cycle;Signal;HPM_P1;HPM_P2
2023/03/20 00:01:27;;;;;;;17.90;9.88;;;9.40;99.90;;;;;;5050037;28;20029;-66
2023/03/20 00:03:53;;;;;;;19.63;10.60;;;9.40;99.90;;;;;;5025709;28;20052;-66
2023/03/20 00:06:24;;;;;;;21.92;11.38;;;9.40;99.90;;;;;;5048601;28;20037;-66
2023/03/20 00:08:52;;;;;;;21.73;10.27;;;9.40;99.90;;;;;;5049944;28;20060;-66
2023/03/20 00:11:35;;;;;;;19.58;11.02;;;9.40;99.90;;;;;;5049575;28;20039;-66
2023/03/20 00:14:07;;;;;;;27.30;13.90;;;9.40;99.90;;;;;;5052940;28;20029;-66
2023/03/20 00:16:41;;;;;;;18.90;10.05;;;9.40;99.90;;;;;;5052075;28;20048;-66
2023/03/20 00:19:16;;;;;;;20.98;10.20;;;9.40;99.90;;;;;;5049571;28;20086;-66
2023/03/20 00:21:42;;;;;;;20.05;10.65;;;9.40;99.90;;;;;;5052940;28;20403;-66
2023/03/20 00:24:08;;;;;;;23.05;11.00;;;9.40;99.90;;;;;;5053054;28;20048;-66
2023/03/20 00:26:35;;;;;;;21.63;11.52;;;9.40;99.90;;;;;;5048704;28;20041;-66
2023/03/20 00:29:02;;;;;;;23.83;11.35;;;9.30;99.90;;;;;;5034624;28;20064;-66
2023/03/20 00:31:38;;;;;;;25.35;12.15;;;9.30;99.90;;;;;;5054060;28;20044;-66
2023/03/20 00:34:13;;;;;;;24.02;12.57;;;9.30;99.90;;;;;;5035881;28;20402;-66
2023/03/20 00:36:38;;;;;;;27.20;12.32;;;9.30;99.90;;;;;;5053395;28;20112;-66
2023/03/20 00:39:04;;;;;;;28.63;12.30;;;9.20;99.90;;;;;;5053290;28;20124;-66
2023/03/20 00:41:41;;;;;;;27.08;12.57;;;9.20;99.90;;;;;;5050647;28;20440;-66
2023/03/20 00:44:17;;;;;;;29.30;12.25;;;9.20;99.90;;;;;;5054528;28;20033;-66
2023/03/20 00:46:45;;;;;;;28.00;10.15;;;9.20;99.90;;;;;;5052847;28;20116;-66
2023/03/20 00:49:10;;;;;;;26.48;11.02;;;9.20;99.90;;;;;;5033189;28;20047;-66
2023/03/20 00:51:37;;;;;;;21.83;10.15;;;9.20;99.90;;;;;;5057567;28;20025;-66
2023/03/20 00:54:11;;;;;;;24.35;9.65;;;9.20;99.90;;;;;;5049270;28;20116;-66
2023/03/20 00:56:45;;;;;;;20.45;9.10;;;9.20;99.90;;;;;;5068719;28;20045;-66
2023/03/20 00:59:20;;;;;;;23.33;10.52;;;9.20;99.90;;;;;;5036926;28;20182;-66
2023/03/20 01:01:45;;;;;;;44.30;17.92;;;9.20;99.90;;;;;;5053604;28;20044;-66
2023/03/20 01:04:15;;;;;;;22.98;11.60;;;9.20;99.90;;;;;;5053159;28;20075;-66
2023/03/20 01:06:41;;;;;;;35.70;17.48;;;9.20;99.90;;;;;;5055712;28;20489;-66
2023/03/20 01:09:06;;;;;;;24.13;12.20;;;9.20;99.90;;;;;;5048632;28;20029;-66
2023/03/20 01:11:32;;;;;;;17.70;8.73;;;9.20;99.90;;;;;;5050723;28;20405;-66
2023/03/20 01:13:57;;;;;;;14.80;7.93;;;9.20;99.90;;;;;;5035763;28;20037;-66
2023/03/20 01:16:25;;;;;;;16.95;7.43;;;9.10;99.90;;;;;;5036668;28;20131;-66
2023/03/20 01:18:51;;;;;;;20.40;8.85;;;9.20;99.90;;;;;;5034474;28;20527;-66
2023/03/20 01:21:18;;;;;;;17.40;7.22;;;9.10;99.90;;;;;;5049500;28;20501;-66
2023/03/20 01:23:47;;;;;;;17.27;7.18;;;9.10;99.90;;;;;;5051455;28;20040;-66
2023/03/20 01:26:35;;;;;;;12.90;6.35;;;9.10;99.90;;;;;;5047617;28;20483;-66
2023/03/20 01:29:01;;;;;;;14.70;6.65;;;9.10;99.90;;;;;;5025951;28;20112;-66
2023/03/20 01:31:26;;;;;;;15.88;6.57;;;9.00;99.90;;;;;;5050193;28;20586;-66
2023/03/20 01:33:52;;;;;;;12.98;5.63;;;9.00;99.90;;;;;;5049851;28;20398;-66
2023/03/20 01:36:21;;;;;;;14.02;6.05;;;9.00;99.90;;;;;;5044969;28;20115;-66
2023/03/20 01:38:56;;;;;;;15.80;6.60;;;9.00;99.90;;;;;;5052091;28;20037;-66
2023/03/20 01:41:24;;;;;;;11.50;6.10;;;9.00;99.90;;;;;;5050323;28;20087;-66
2023/03/20 01:43:52;;;;;;;14.40;6.65;;;9.00;99.90;;;;;;5028997;28;20037;-66
2023/03/20 01:46:22;;;;;;;15.55;6.28;;;9.00;99.90;;;;;;5029144;28;20045;-66
2023/03/20 01:48:51;;;;;;;17.15;6.65;;;9.00;99.90;;;;;;5029922;28;20556;-66
2023/03/20 01:51:17;;;;;;;13.10;6.15;;;9.00;99.90;;;;;;5048475;28;20040;-66
2023/03/20 01:53:46;;;;;;;13.73;6.38;;;9.00;99.90;;;;;;5048899;28;20486;-66
2023/03/20 01:56:16;;;;;;;13.52;6.03;;;9.00;99.90;;;;;;5033297;28;20047;-66
2023/03/20 01:58:50;;;;;;;14.38;6.65;;;9.00;99.90;;;;;;5041727;28;20033;-66
2023/03/20 02:01:17;;;;;;;15.70;6.47;;;9.00;99.90;;;;;;5045434;28;20036;-66
2023/03/20 02:03:47;;;;;;;13.15;6.72;;;8.90;99.90;;;;;;5048823;28;20072;-66
2023/03/20 02:06:13;;;;;;;12.85;6.15;;;8.90;99.90;;;;;;5051775;28;20469;-66
2023/03/20 02:08:46;;;;;;;14.70;6.03;;;8.90;99.90;;;;;;5050481;28;20033;-66
2023/03/20 02:11:12;;;;;;;14.88;6.85;;;8.90;99.90;;;;;;5052336;28;20111;-66
2023/03/20 02:13:39;;;;;;;16.65;6.28;;;8.90;99.90;;;;;;5050040;28;20049;-66
2023/03/20 02:16:12;;;;;;;12.63;7.00;;;8.90;99.90;;;;;;5048805;28;20033;-66
2023/03/20 02:18:41;;;;;;;14.20;6.63;;;8.90;99.90;;;;;;5049699;28;20045;-66
2023/03/20 02:21:09;;;;;;;14.63;7.53;;;8.90;99.90;;;;;;5028296;28;20044;-66
2023/03/20 02:23:37;;;;;;;13.68;7.53;;;8.90;99.90;;;;;;5051252;28;20120;-66
2023/03/20 02:26:24;;;;;;;20.65;8.43;;;8.80;99.90;;;;;;5049619;28;20041;-66
2023/03/20 02:29:22;;;;;;;24.73;12.38;;;8.90;99.90;;;;;;5050099;28;20117;-66
2023/03/20 02:32:14;;;;;;;20.73;9.57;;;8.80;99.90;;;;;;5031223;28;20092;-66
2023/03/20 02:35:22;;;;;;;19.00;8.68;;;8.80;99.90;;;;;;5051979;28;20056;-66
2023/03/20 02:38:18;;;;;;;15.43;7.50;;;8.80;99.90;;;;;;5052890;28;20402;-66
2023/03/20 02:41:08;;;;;;;43.03;20.25;;;8.80;99.90;;;;;;5051016;28;20029;-66
2023/03/20 02:44:04;;;;;;;21.05;10.68;;;8.80;99.90;;;;;;5051545;28;20414;-66
2023/03/20 02:46:51;;;;;;;18.88;9.50;;;8.80;99.90;;;;;;5029342;28;20052;-66
2023/03/20 02:49:25;;;;;;;23.00;10.95;;;8.80;99.90;;;;;;5046734;28;20033;-66
2023/03/20 02:52:02;;;;;;;22.67;10.18;;;8.70;99.90;;;;;;5046746;28;20039;-66
2023/03/20 02:54:51;;;;;;;23.45;11.40;;;8.80;99.90;;;;;;5022686;28;20104;-66
2023/03/20 02:57:35;;;;;;;33.90;15.43;;;8.70;99.90;;;;;;5049600;28;20501;-66
2023/03/20 03:00:18;;;;;;;22.70;9.57;;;8.80;99.90;;;;;;5033124;28;20044;-66
2023/03/20 03:02:51;;;;;;;24.13;10.90;;;8.70;99.90;;;;;;5032877;28;20048;-65
2023/03/20 03:05:29;;;;;;;19.60;11.85;;;8.80;99.90;;;;;;5029639;28;20045;-65
2023/03/20 03:07:58;;;;;;;25.88;10.90;;;8.70;99.90;;;;;;5029276;28;20149;-65
2023/03/20 03:10:29;;;;;;;23.23;11.63;;;8.70;99.90;;;;;;5050234;28;20048;-65
2023/03/20 03:12:57;;;;;;;27.38;13.50;;;8.80;99.90;;;;;;5047905;28;20041;-65
2023/03/20 03:15:26;;;;;;;24.15;12.32;;;8.80;99.90;;;;;;5050047;28;20040;-65
2023/03/20 03:17:53;;;;;;;27.52;12.55;;;8.80;99.90;;;;;;5032082;28;20040;-65
2023/03/20 03:20:23;;;;;;;26.48;12.93;;;8.80;99.90;;;;;;5051306;28;20171;-65
2023/03/20 03:22:50;;;;;;;24.30;12.35;;;8.70;99.90;;;;;;5051161;28;20498;-65
2023/03/20 03:25:15;;;;;;;26.27;12.52;;;8.70;99.90;;;;;;5051161;28;20037;-65
2023/03/20 03:27:44;;;;;;;26.13;12.90;;;8.80;99.90;;;;;;5031487;28;20036;-65
2023/03/20 03:30:13;;;;;;;26.15;12.35;;;8.70;99.90;;;;;;5051223;28;20036;-65
2023/03/20 03:32:54;;;;;;;29.48;12.85;;;8.80;99.90;;;;;;5049629;28;20036;-65
2023/03/20 03:35:22;;;;;;;28.38;12.57;;;8.80;99.90;;;;;;5031784;28;20051;-65
2023/03/20 03:38:12;;;;;;;25.67;11.45;;;8.80;99.90;;;;;;5051279;28;20483;-65
2023/03/20 03:40:52;;;;;;;25.60;12.40;;;8.80;99.90;;;;;;5020893;28;20123;-65
2023/03/20 03:43:41;;;;;;;22.45;11.95;;;8.80;99.90;;;;;;5032286;28;20052;-65
2023/03/20 03:46:19;;;;;;;25.38;10.75;;;8.80;99.90;;;;;;5031950;28;20038;-66
2023/03/20 03:48:50;;;;;;;22.25;11.20;;;8.80;99.90;;;;;;5043013;28;20048;-65
2023/03/20 03:51:22;;;;;;;22.33;11.65;;;8.80;99.90;;;;;;5049125;28;20032;-65
2023/03/20 03:54:07;;;;;;;23.42;10.80;;;8.80;99.90;;;;;;5050783;28;20044;-65
2023/03/20 03:56:35;;;;;;;17.08;9.57;;;8.80;99.90;;;;;;5030719;28;20139;-65
2023/03/20 03:59:06;;;;;;;23.85;10.00;;;8.70;99.90;;;;;;5033374;28;20056;-65
2023/03/20 04:01:34;;;;;;;;;;;8.70;99.90;;;;;;5049438;28;20041;-65
2023/03/20 04:04:02;;;;;;;20.92;9.32;;;8.70;99.90;;;;;;5032702;28;19931;-65
2023/03/20 04:06:28;;;;;;;19.08;8.23;;;8.70;99.90;;;;;;5047981;28;20037;-65
2023/03/20 04:08:54;;;;;;;17.23;8.18;;;8.70;99.90;;;;;;5049582;28;20037;-65
2023/03/20 04:11:23;;;;;;;13.98;7.32;;;8.70;99.90;;;;;;5030991;28;20049;-65
2023/03/20 04:13:50;;;;;;;15.93;7.65;;;8.70;99.90;;;;;;5051296;28;20043;-65
2023/03/20 04:16:17;;;;;;;15.70;8.02;;;8.70;99.90;;;;;;5049856;28;20095;-65
2023/03/20 04:18:44;;;;;;;16.60;8.05;;;8.70;99.90;;;;;;5048721;28;20120;-65
2023/03/20 04:21:10;;;;;;;13.52;7.03;;;8.70;99.90;;;;;;5048014;28;20517;-66
2023/03/20 04:23:36;;;;;;;17.50;7.07;;;8.70;99.90;;;;;;5033047;28;20032;-65
2023/03/20 04:26:02;;;;;;;13.75;7.30;;;8.70;99.90;;;;;;5032800;28;20460;-65
2023/03/20 04:28:28;;;;;;;15.15;7.82;;;8.60;99.90;;;;;;5050844;28;20540;-65
2023/03/20 04:30:58;;;;;;;18.05;8.07;;;8.60;99.90;;;;;;5032466;28;20052;-65
2023/03/20 04:33:25;;;;;;;14.10;7.05;;;8.60;99.90;;;;;;5050004;28;20041;-65
2023/03/20 04:35:51;;;;;;;13.15;7.18;;;8.60;99.90;;;;;;5031880;28;20044;-65
2023/03/20 04:38:18;;;;;;;16.13;7.30;;;8.60;99.90;;;;;;5051067;28;20084;-65
2023/03/20 04:40:45;;;;;;;15.40;7.88;;;8.60;99.90;;;;;;5049366;28;20080;-66
2023/03/20 04:43:12;;;;;;;18.00;7.38;;;8.50;99.90;;;;;;5032950;28;20068;-65
2023/03/20 04:45:37;;;;;;;14.40;7.20;;;8.50;99.90;;;;;;5041692;28;20038;-65
2023/03/20 04:48:03;;;;;;;14.95;7.65;;;8.50;99.90;;;;;;5048770;28;20037;-65
2023/03/20 04:50:29;;;;;;;14.43;7.22;;;8.50;99.90;;;;;;5032701;28;20072;-65
2023/03/20 04:52:55;;;;;;;14.38;7.18;;;8.50;99.90;;;;;;5017134;28;20493;-65
2023/03/20 04:55:21;;;;;;;14.32;7.82;;;8.50;99.90;;;;;;5050639;28;20040;-65
2023/03/20 04:57:47;;;;;;;16.67;7.63;;;8.50;99.90;;;;;;5049584;28;20041;-65
2023/03/20 05:00:13;;;;;;;11.75;7.05;;;8.50;99.90;;;;;;5066746;22;20045;-59
2023/03/20 05:02:39;;;;;;;15.35;7.93;;;8.50;99.90;;;;;;5047693;28;20057;-62
2023/03/20 05:05:05;;;;;;;18.23;8.80;;;8.50;99.90;;;;;;5034739;28;20556;-62
2023/03/20 05:07:31;;;;;;;17.48;8.32;;;8.40;99.90;;;;;;5052289;28;20033;-62
2023/03/20 05:09:57;;;;;;;20.13;9.30;;;8.50;99.90;;;;;;5033554;28;20029;-62
2023/03/20 05:12:23;;;;;;;20.92;9.00;;;8.40;99.90;;;;;;5033235;28;20048;-62
2023/03/20 05:14:49;;;;;;;17.45;8.82;;;8.40;99.90;;;;;;5033996;28;20033;-62
2023/03/20 05:17:17;;;;;;;21.55;9.35;;;8.40;99.90;;;;;;5035006;28;20041;-62
2023/03/20 05:19:43;;;;;;;19.42;9.48;;;8.40;99.90;;;;;;5033017;28;20033;-62
2023/03/20 05:22:09;;;;;;;17.63;9.32;;;8.40;99.90;;;;;;5020810;28;20068;-62
2023/03/20 05:24:34;;;;;;;19.20;10.40;;;8.40;99.90;;;;;;5035682;28;20068;-62
2023/03/20 05:27:00;;;;;;;21.27;10.05;;;8.40;99.90;;;;;;5033550;28;20056;-62
2023/03/20 05:29:26;;;;;;;17.63;10.13;;;8.40;99.90;;;;;;5015465;28;20498;-62
2023/03/20 05:31:51;;;;;;;19.55;10.25;;;8.40;99.90;;;;;;5038962;28;20434;-62
2023/03/20 05:34:17;;;;;;;18.88;10.80;;;8.40;99.90;;;;;;5034212;28;20060;-62
2023/03/20 05:36:42;;;;;;;17.20;10.10;;;8.30;99.90;;;;;;5032484;28;20052;-62
2023/03/20 05:39:08;;;;;;;20.05;10.95;;;8.30;99.90;;;;;;5031487;28;20072;-62
2023/03/20 05:41:34;;;;;;;17.42;10.85;;;8.30;99.90;;;;;;5033502;28;20045;-62
2023/03/20 05:44:00;;;;;;;23.42;11.18;;;8.40;99.90;;;;;;5015804;28;20037;-62
2023/03/20 05:46:25;;;;;;;20.80;11.30;;;8.30;99.90;;;;;;5030454;28;20537;-62
2023/03/20 05:48:51;;;;;;;15.57;9.68;;;8.30;99.90;;;;;;5019616;28;20037;-62
2023/03/20 05:51:16;;;;;;;20.95;11.63;;;8.30;99.90;;;;;;5015232;28;20068;-62
2023/03/20 05:53:42;;;;;;;19.60;10.75;;;8.30;99.90;;;;;;5033304;28;20064;-62
2023/03/20 05:56:08;;;;;;;18.50;10.77;;;8.30;99.90;;;;;;5032013;28;20042;-62
2023/03/20 05:58:35;;;;;;;20.15;11.23;;;8.30;99.90;;;;;;5028922;28;20042;-62
2023/03/20 06:01:00;;;;;;;19.58;11.43;;;8.30;99.90;;;;;;5030431;28;20037;-62
2023/03/20 06:03:26;;;;;;;19.38;11.82;;;8.30;99.90;;;;;;5034407;28;20030;-62
2023/03/20 06:05:51;;;;;;;18.65;11.48;;;8.40;99.90;;;;;;5032359;28;20077;-62
2023/03/20 06:08:17;;;;;;;20.83;11.07;;;8.30;99.90;;;;;;5014654;28;20061;-62
2023/03/20 06:10:43;;;;;;;21.17;11.00;;;8.30;99.90;;;;;;5011396;28;20407;-62
2023/03/20 06:13:08;;;;;;;19.25;11.93;;;8.30;99.90;;;;;;5026849;28;20386;-63
2023/03/20 06:15:34;;;;;;;21.10;11.80;;;8.40;99.90;;;;;;5015158;28;20665;-62
2023/03/20 06:17:59;;;;;;;22.50;10.85;;;8.30;99.90;;;;;;5026014;28;20441;-62
2023/03/20 06:20:25;;;;;;;20.80;11.52;;;8.40;99.90;;;;;;5027268;28;20037;-62
2023/03/20 06:22:51;;;;;;;16.05;10.27;;;8.30;99.90;;;;;;5030051;28;20045;-62
2023/03/20 06:25:17;;;;;;;18.17;10.15;;;8.40;99.90;;;;;;5038833;28;20034;-62
2023/03/20 06:27:44;;;;;;;16.80;10.38;;;8.40;99.90;;;;;;5032119;28;20040;-62
2023/03/20 06:30:10;;;;;;;18.63;10.18;;;8.40;99.90;;;;;;5031549;28;20037;-63
2023/03/20 06:32:36;;;;;;;22.17;10.65;;;8.40;99.90;;;;;;5032334;28;20034;-62
2023/03/20 06:35:04;;;;;;;18.90;10.07;;;8.40;99.90;;;;;;5020234;28;20419;-62
2023/03/20 06:37:30;;;;;;;14.77;9.90;;;8.40;99.90;;;;;;5013135;28;20049;-62
2023/03/20 06:39:56;;;;;;;17.40;10.43;;;8.40;99.90;;;;;;5027985;28;20041;-62
2023/03/20 06:42:21;;;;;;;20.30;9.52;;;8.40;99.90;;;;;;5032431;28;20034;-62
2023/03/20 06:44:47;;;;;;;18.95;9.80;;;8.50;99.90;;;;;;5030418;28;20130;-62
2023/03/20 06:47:12;;;;;;;18.92;9.38;;;8.50;99.90;;;;;;5030362;28;20064;-62
2023/03/20 06:49:38;;;;;;;17.02;9.40;;;8.50;99.90;;;;;;5037975;28;20065;-62
2023/03/20 06:52:04;;;;;;;13.80;8.75;;;8.50;99.90;;;;;;5048682;28;20025;-62
2023/03/20 06:54:29;;;;;;;17.83;9.38;;;8.50;99.90;;;;;;5030205;28;20044;-62
2023/03/20 06:56:55;;;;;;;16.27;8.82;;;8.60;99.90;;;;;;5036413;28;20061;-62
2023/03/20 06:59:20;;;;;;;19.40;8.80;;;8.60;99.90;;;;;;5034157;28;20049;-62
2023/03/20 07:01:46;;;;;;;15.85;9.27;;;8.60;99.90;;;;;;5032482;28;20172;-62
2023/03/20 07:04:11;;;;;;;17.05;8.90;;;8.60;99.90;;;;;;5020825;28;20311;-62
2023/03/20 07:06:37;;;;;;;17.33;9.40;;;8.60;99.90;;;;;;5031457;28;20076;-62
2023/03/20 07:09:03;;;;;;;15.68;8.30;;;8.60;99.90;;;;;;5035210;28;20041;-62
2023/03/20 07:11:29;;;;;;;18.33;8.60;;;8.60;99.90;;;;;;5029916;28;20063;-62
2023/03/20 07:13:55;;;;;;;15.25;8.50;;;8.60;99.90;;;;;;5032701;28;20040;-62
2023/03/20 07:16:21;;;;;;;14.75;8.45;;;8.60;99.90;;;;;;5010713;28;20041;-62
2023/03/20 07:18:47;;;;;;;16.33;8.10;;;8.60;99.90;;;;;;5030494;28;20048;-62
2023/03/20 07:21:18;;;;;;;17.33;8.18;;;8.60;99.90;;;;;;5026807;28;20066;-62
2023/03/20 07:23:44;;;;;;;14.77;7.70;;;8.70;99.90;;;;;;5024346;28;20183;-62
2023/03/20 07:26:10;;;;;;;15.35;8.20;;;8.60;99.90;;;;;;5030734;28;20069;-63
2023/03/20 07:28:35;;;;;;;17.73;8.25;;;8.70;99.90;;;;;;5012556;28;20034;-62
2023/03/20 07:31:01;;;;;;;18.35;8.60;;;8.70;99.90;;;;;;5049348;28;20040;-62
2023/03/20 07:33:26;;;;;;;17.02;7.50;;;8.70;99.90;;;;;;5023969;28;20470;-62
2023/03/20 07:35:53;;;;;;;18.05;8.88;;;8.70;99.90;;;;;;5026946;28;20037;-62
2023/03/20 07:38:20;;;;;;;14.18;8.38;;;8.70;99.90;;;;;;5050130;28;20051;-62
2023/03/20 07:40:47;;;;;;;15.73;7.35;;;8.80;99.90;;;;;;5028423;28;20074;-62
2023/03/20 07:43:14;;;;;;;16.58;8.32;;;8.70;99.90;;;;;;5031399;28;20078;-62
2023/03/20 07:45:39;;;;;;;18.30;8.45;;;8.80;99.90;;;;;;5031017;28;20041;-62
2023/03/20 07:48:05;;;;;;;17.45;7.60;;;8.80;99.90;;;;;;5033199;28;20042;-62
2023/03/20 07:50:31;;;;;;;14.43;6.65;;;8.80;99.90;;;;;;5038983;28;20037;-62
2023/03/20 07:52:56;;;;;;;19.48;8.68;;;8.80;99.90;;;;;;5032700;28;20029;-63
2023/03/20 07:55:22;;;;;;;18.00;8.75;;;8.90;99.90;;;;;;5019276;28;20120;-63
2023/03/20 07:57:48;;;;;;;20.05;8.55;;;8.90;99.90;;;;;;5030436;28;20053;-62
2023/03/20 08:00:15;;;;;;;17.73;9.35;;;8.90;99.90;;;;;;5029771;28;20568;-62
2023/03/20 08:02:40;;;;;;;17.30;8.32;;;8.90;99.90;;;;;;5029368;28;20044;-62
2023/03/20 08:05:07;;;;;;;21.15;8.98;;;8.90;99.90;;;;;;5028086;28;20045;-62
2023/03/20 08:07:32;;;;;;;18.88;9.00;;;8.90;99.90;;;;;;5033721;28;20379;-62
2023/03/20 08:09:58;;;;;;;19.00;8.93;;;9.00;99.90;;;;;;5014008;28;20090;-62
2023/03/20 08:12:24;;;;;;;19.98;9.40;;;9.00;99.90;;;;;;5033934;28;20033;-62
2023/03/20 08:14:51;;;;;;;19.85;9.38;;;9.00;99.90;;;;;;5030425;28;20042;-62
2023/03/20 08:17:16;;;;;;;15.65;9.27;;;9.00;99.90;;;;;;5050809;28;20029;-63
2023/03/20 08:19:42;;;;;;;16.92;9.55;;;9.00;99.90;;;;;;5040620;28;20034;-63
2023/03/20 08:22:07;;;;;;;15.93;8.85;;;9.10;99.90;;;;;;5034158;28;20087;-62
2023/03/20 08:24:33;;;;;;;17.30;9.65;;;9.10;99.90;;;;;;5038312;28;20060;-62
2023/03/20 08:26:58;;;;;;;16.23;9.05;;;9.20;99.90;;;;;;5023695;28;20046;-62
2023/03/20 08:29:24;;;;;;;21.23;9.93;;;9.20;99.90;;;;;;5011150;28;20040;-62
2023/03/20 08:31:50;;;;;;;20.48;10.18;;;9.20;99.90;;;;;;5030420;28;20041;-62
2023/03/20 08:34:16;;;;;;;19.48;10.63;;;9.30;99.90;;;;;;5042705;28;20029;-62
2023/03/20 08:36:41;;;;;;;18.73;10.23;;;9.30;99.90;;;;;;5030614;28;20498;-62
2023/03/20 08:39:07;;;;;;;17.42;10.02;;;9.30;99.90;;;;;;5050761;28;20095;-62
2023/03/20 08:41:37;;;;;;;19.42;10.07;;;9.40;99.90;;;;;;5034135;28;20037;-62
2023/03/20 08:44:04;;;;;;;15.52;8.90;;;9.40;99.90;;;;;;5030417;28;20125;-62
2023/03/20 08:46:29;;;;;;;21.58;10.48;;;9.50;99.90;;;;;;5034710;28;20033;-62
2023/03/20 08:48:57;;;;;;;21.00;10.73;;;9.50;99.90;;;;;;5034861;28;20293;-63
2023/03/20 08:51:23;;;;;;;23.02;10.98;;;9.60;99.90;;;;;;5031467;28;20068;-62
2023/03/20 08:53:49;;;;;;;19.15;10.18;;;9.50;99.90;;;;;;5033597;28;20062;-63
2023/03/20 08:56:14;;;;;;;21.20;10.55;;;9.70;99.90;;;;;;5031061;28;20558;-62
2023/03/20 08:58:40;;;;;;;20.08;10.40;;;9.80;99.90;;;;;;5027336;28;20030;-62
2023/03/20 09:01:07;;;;;;;18.13;10.40;;;9.90;99.90;;;;;;5031449;28;20075;-62
2023/03/20 09:03:34;;;;;;;18.02;10.02;;;10.00;99.90;;;;;;5028516;28;20034;-62
2023/03/20 09:05:59;;;;;;;22.13;10.07;;;10.10;99.90;;;;;;5010039;28;20686;-62
2023/03/20 09:08:25;;;;;;;20.95;10.93;;;10.10;99.90;;;;;;5006218;28;20503;-62
2023/03/20 09:10:51;;;;;;;18.80;9.90;;;10.20;99.90;;;;;;5014312;28;20065;-62
2023/03/20 09:13:17;;;;;;;15.82;9.25;;;10.30;99.90;;;;;;5006571;28;20116;-62
2023/03/20 09:15:42;;;;;;;19.55;10.30;;;10.30;99.90;;;;;;5021672;28;20127;-62
2023/03/20 09:18:08;;;;;;;19.17;10.88;;;10.30;99.90;;;;;;5021692;28;20069;-61
2023/03/20 09:20:34;;;;;;;17.95;9.93;;;10.30;99.90;;;;;;5044117;28;20071;-62
2023/03/20 09:23:00;;;;;;;19.10;9.65;;;10.30;99.90;;;;;;5033847;28;20037;-62
2023/03/20 09:25:26;;;;;;;17.15;9.25;;;10.40;99.90;;;;;;5040739;28;20041;-62
2023/03/20 09:27:54;;;;;;;17.90;9.63;;;10.50;99.90;;;;;;5033605;28;20033;-62
2023/03/20 09:30:22;;;;;;;20.25;10.10;;;10.50;99.90;;;;;;5018256;28;20499;-62
2023/03/20 09:32:48;;;;;;;16.67;8.98;;;10.50;99.90;;;;;;5030636;28;20044;-62
2023/03/20 09:35:14;;;;;;;16.88;9.25;;;10.60;99.90;;;;;;5026091;28;20116;-62
2023/03/20 09:37:39;;;;;;;16.23;9.48;;;10.60;99.90;;;;;;5045188;28;20110;-62
2023/03/20 09:40:06;;;;;;;17.70;9.50;;;10.70;99.90;;;;;;5042142;28;20047;-62
2023/03/20 09:42:51;;;;;;;16.90;9.73;;;10.80;99.90;;;;;;5025710;28;20042;-62
2023/03/20 09:45:26;;;;;;;16.55;8.23;;;10.90;99.90;;;;;;5031705;28;20057;-62
2023/03/20 09:48:04;;;;;;;15.95;8.75;;;11.00;99.90;;;;;;5015642;28;20281;-63
2023/03/20 09:51:00;;;;;;;17.25;8.80;;;11.00;99.90;;;;;;5030365;28;20669;-62
2023/03/20 09:53:33;;;;;;;14.43;8.35;;;11.10;99.90;;;;;;5037211;28;20046;-62
2023/03/20 09:55:59;;;;;;;16.30;9.27;;;11.20;99.90;;;;;;5023415;28;20487;-62
2023/03/20 09:58:35;;;;;;;16.02;8.85;;;11.20;99.90;;;;;;5034597;28;20039;-62
2023/03/20 10:01:04;;;;;;;17.95;9.10;;;11.30;99.90;;;;;;5028109;28;20068;-62
2023/03/20 10:03:57;;;;;;;15.70;8.25;;;11.30;99.90;;;;;;5040127;28;20044;-62
2023/03/20 10:06:22;;;;;;;13.93;7.75;;;11.30;99.90;;;;;;5023754;28;20053;-62
2023/03/20 10:08:49;;;;;;;20.42;8.43;;;11.30;99.90;;;;;;5014376;28;20557;-62
2023/03/20 10:11:31;;;;;;;15.18;8.07;;;11.30;99.90;;;;;;5036212;28;20124;-62
2023/03/20 10:14:21;;;;;;;16.25;8.40;;;11.30;99.90;;;;;;5044558;28;20068;-62
2023/03/20 10:16:57;;;;;;;14.63;7.57;;;11.30;99.90;;;;;;5015064;28;20049;-62
2023/03/20 10:19:32;;;;;;;16.80;8.10;;;11.30;99.90;;;;;;5038154;28;20048;-62
2023/03/20 10:22:21;;;;;;;16.05;7.20;;;11.30;99.90;;;;;;5044195;28;20033;-63
2023/03/20 10:24:52;;;;;;;14.23;6.93;;;11.40;99.90;;;;;;5050062;28;20037;-63
2023/03/20 10:27:30;;;;;;;20.50;8.43;;;11.40;99.90;;;;;;5037596;28;20037;-62
2023/03/20 10:30:04;;;;;;;14.32;7.68;;;11.40;99.90;;;;;;5027379;28;20038;-62
2023/03/20 10:32:41;;;;;;;15.80;8.13;;;11.40;99.90;;;;;;5012834;28;20443;-62
2023/03/20 10:35:13;;;;;;;17.23;7.43;;;11.40;99.90;;;;;;5035065;28;20056;-62
2023/03/20 10:37:50;;;;;;;15.20;8.82;;;11.30;99.90;;;;;;5034063;28;20091;-63
2023/03/20 10:40:28;;;;;;;17.90;8.02;;;11.20;99.90;;;;;;5026569;28;20396;-63
2023/03/20 10:43:01;;;;;;;17.65;8.27;;;11.10;99.90;;;;;;5030652;28;20176;-63
2023/03/20 10:45:37;;;;;;;16.42;8.27;;;11.10;99.90;;;;;;5039495;28;20042;-62
2023/03/20 10:48:11;;;;;;;16.27;8.93;;;11.10;99.90;;;;;;5030832;28;20037;-62
2023/03/20 10:50:44;;;;;;;19.05;9.70;;;11.10;99.90;;;;;;5048396;28;20040;-62
2023/03/20 10:53:36;;;;;;;27.33;9.30;;;11.10;99.90;;;;;;5011907;28;20044;-62
2023/03/20 10:56:06;;;;;;;17.33;8.35;;;11.00;99.90;;;;;;5022150;28;20080;-62
2023/03/20 10:58:38;;;;;;;16.85;9.68;;;10.90;99.90;;;;;;5030255;28;20372;-62
2023/03/20 11:01:04;;;;;;;19.85;10.27;;;10.90;99.90;;;;;;5066728;22;20574;-62
2023/03/20 11:03:33;;;;;;;16.42;8.27;;;10.80;99.90;;;;;;5088562;28;20039;-63
2023/03/20 11:06:02;;;;;;;15.85;8.23;;;10.70;99.90;;;;;;5084911;28;20044;-63
2023/03/20 11:08:37;;;;;;;20.40;8.43;;;10.70;99.90;;;;;;5081717;28;20549;-62
2023/03/20 11:11:04;;;;;;;18.98;8.45;;;10.60;99.90;;;;;;5055264;28;20043;-63
2023/03/20 11:13:33;;;;;;;15.35;8.60;;;10.60;99.90;;;;;;5044749;28;20036;-62
2023/03/20 11:16:31;;;;;;;15.40;6.97;;;10.60;99.90;;;;;;5064054;28;20040;-63
2023/03/20 11:19:04;;;;;;;11.32;6.60;;;10.60;99.90;;;;;;5070481;28;20040;-63
2023/03/20 11:21:30;;;;;;;12.82;6.80;;;10.60;99.90;;;;;;5070297;28;20378;-64
2023/03/20 11:24:00;;;;;;;10.60;5.53;;;10.70;99.90;;;;;;5069649;28;20052;-63
2023/03/20 11:26:31;;;;;;;9.48;6.10;;;10.70;99.90;;;;;;5067278;28;20178;-63
2023/03/20 11:28:58;;;;;;;14.27;6.60;;;10.60;99.90;;;;;;5067872;28;20119;-64
2023/03/20 11:31:34;;;;;;;11.57;6.47;;;10.60;99.90;;;;;;5068390;28;20024;-63
2023/03/20 11:34:15;;;;;;;13.40;6.63;;;10.60;99.90;;;;;;5068233;28;20032;-63
2023/03/20 11:36:57;;;;;;;17.98;6.80;;;10.60;99.90;;;;;;5070364;28;20040;-64
2023/03/20 11:39:30;;;;;;;13.70;6.68;;;10.60;99.90;;;;;;5069235;28;20062;-63
2023/03/20 11:41:59;;;;;;;13.18;6.78;;;10.60;99.90;;;;;;5070995;28;20051;-63
2023/03/20 11:44:29;;;;;;;12.48;6.20;;;10.60;99.90;;;;;;5068293;28;20115;-63
2023/03/20 11:47:25;;;;;;;10.43;6.33;;;10.60;99.90;;;;;;5071539;28;20086;-63
2023/03/20 11:50:00;;;;;;;11.55;6.57;;;10.70;99.90;;;;;;5071044;28;20036;-63
2023/03/20 11:52:31;;;;;;;14.25;6.18;;;10.60;99.90;;;;;;5070471;28;20394;-63
2023/03/20 11:54:58;;;;;;;;;;;10.60;99.90;;;;;;5052748;28;20037;-63
2023/03/20 11:57:36;;;;;;;13.90;6.55;;;10.60;99.90;;;;;;5056692;28;19998;-63
2023/03/20 12:00:10;;;;;;;11.30;6.65;;;10.50;99.90;;;;;;5058951;28;20044;-63
2023/03/20 12:02:38;;;;;;;12.35;6.70;;;10.50;99.90;;;;;;5075163;28;20037;-63
2023/03/20 12:05:19;;;;;;;12.73;7.30;;;10.50;99.90;;;;;;5068696;28;20138;-63
2023/03/20 12:07:48;;;;;;;13.70;8.50;;;10.50;99.90;;;;;;5064062;28;20066;-63
2023/03/20 12:10:14;;;;;;;12.82;7.40;;;10.40;99.90;;;;;;5073392;28;20036;-63
2023/03/20 12:12:58;;;;;;;16.50;7.80;;;10.40;99.90;;;;;;5074201;28;20033;-63
2023/03/20 12:15:33;;;;;;;15.32;7.20;;;10.40;99.90;;;;;;5072955;28;20044;-63
2023/03/20 12:18:15;;;;;;;15.55;7.35;;;10.40;99.90;;;;;;5075045;28;20611;-63
2023/03/20 12:21:08;;;;;;;15.93;7.47;;;10.40;99.90;;;;;;5063950;28;20041;-63
2023/03/20 12:23:44;;;;;;;13.75;7.18;;;10.50;99.90;;;;;;5063443;28;20093;-64
2023/03/20 12:26:30;;;;;;;12.43;6.60;;;10.50;99.90;;;;;;5070139;28;20048;-63
2023/03/20 12:29:10;;;;;;;12.98;6.85;;;10.50;99.90;;;;;;5073469;28;20160;-63
2023/03/20 12:31:52;;;;;;;10.95;5.45;;;10.60;99.90;;;;;;5070473;28;20036;-63
2023/03/20 12:34:41;;;;;;;13.60;6.43;;;10.60;99.90;;;;;;5067498;28;20032;-63
2023/03/20 12:37:09;;;;;;;10.20;5.20;;;10.60;99.90;;;;;;5056386;28;20047;-63
2023/03/20 12:39:47;;;;;;;9.93;4.88;;;10.60;99.90;;;;;;5065495;28;20045;-63
2023/03/20 12:42:50;;;;;;;9.90;5.07;;;10.60;99.90;;;;;;5069243;28;20052;-63
2023/03/20 12:45:20;;;;;;;9.90;4.72;;;10.50;99.90;;;;;;5067911;28;20044;-63
2023/03/20 12:48:15;;;;;;;10.00;5.00;;;10.50;99.90;;;;;;5081788;28;20033;-63
2023/03/20 12:50:49;;;;;;;12.05;4.38;;;10.50;99.90;;;;;;5074201;28;20041;-63
2023/03/20 12:53:18;;;;;;;7.78;4.03;;;10.50;99.90;;;;;;5067417;28;20044;-63
2023/03/20 12:56:07;;;;;;;11.35;4.43;;;10.40;99.90;;;;;;5062693;28;20076;-64
2023/03/20 12:59:17;;;;;;;9.57;4.30;;;10.40;99.90;;;;;;5076675;28;20119;-64